Terminal Aerodrome Forecast
Issued by NWS Shreveport, LA

Home | Current Version | Previous Version | Text Only | Print | Product List | Glossary On
Versions: 1 2 3 4 5 6 7 8 9 10 11 12
998
FTUS44 KSHV 031725
TAFTYR
TAF
KTYR 031725Z 0318/0418 07014KT 5SM -RA BR OVC010
      TEMPO 0318/0322 08016G25KT
     FM032200 06013KT 4SM RA BR OVC004
     FM040300 02009KT 2SM -RA BR OVC003=

USA.gov is the U.S. government's official web portal to all federal, state and local government web resources and services.